Time;durP1;ratioP1;P1;durP2;ratioP2;P2;SDS_P1;SDS_P2;PMS_P1;PMS_P2;Temp;Humidity;BMP_temperature;BMP_pressure;BME280_temperature;BME280_humidity;BME280_pressure;Samples;Min_cycle;Max_cycle;Signal;HPM_P1;HPM_P2
2022/05/24 00:01:55;;;;;;;5.00;3.35;;;;;;;;;;4391866;32;20070;-62
2022/05/24 00:04:22;;;;;;;6.37;3.33;;;;;;;;;;4390221;32;20073;-63
2022/05/24 00:06:49;;;;;;;6.28;3.45;;;;;;;;;;4391617;32;20228;-63
2022/05/24 00:09:15;;;;;;;7.35;3.42;;;;;;;;;;4391739;32;20081;-63
2022/05/24 00:11:42;;;;;;;8.38;4.20;;;;;;;;;;4391729;32;20097;-63
2022/05/24 00:14:08;;;;;;;7.85;4.22;;;;;;;;;;4390502;32;20074;-62
2022/05/24 00:16:35;;;;;;;7.05;3.60;;;;;;;;;;4390420;32;20511;-63
2022/05/24 00:19:02;;;;;;;7.37;3.87;;;;;;;;;;4390059;32;20073;-63
2022/05/24 00:21:29;;;;;;;5.93;3.50;;;;;;;;;;4391529;32;20085;-63
2022/05/24 00:23:55;;;;;;;8.07;3.58;;;;;;;;;;4389990;32;20078;-62
2022/05/24 00:26:30;;;;;;;8.02;3.58;;;;;;;;;;4390238;32;20489;-64
2022/05/24 00:28:56;;;;;;;8.07;3.78;;;;;;;;;;4390522;32;20149;-64
2022/05/24 00:31:23;;;;;;;10.00;4.97;;;;;;;;;;4390124;32;20093;-63
2022/05/24 00:33:50;;;;;;;9.07;4.97;;;;;;;;;;4391603;32;20077;-63
2022/05/24 00:36:17;;;;;;;15.77;5.50;;;;;;;;;;4391282;32;20505;-63
2022/05/24 00:38:44;;;;;;;14.13;6.18;;;;;;;;;;4390553;32;20189;-62
2022/05/24 00:41:22;;;;;;;13.82;6.90;;;;;;;;;;4377694;32;20089;-64
2022/05/24 00:43:53;;;;;;;13.65;6.82;;;;;;;;;;4390569;32;20084;-62
2022/05/24 00:46:24;;;;;;;14.90;6.68;;;;;;;;;;4390129;32;20074;-62
2022/05/24 00:49:00;;;;;;;19.42;7.32;;;;;;;;;;4389648;32;20069;-64
2022/05/24 00:51:41;;;;;;;17.00;7.93;;;;;;;;;;4390276;32;20070;-63
2022/05/24 00:54:08;;;;;;;17.45;8.52;;;;;;;;;;4377689;32;20145;-63
2022/05/24 00:56:48;;;;;;;18.67;8.65;;;;;;;;;;4391431;32;20105;-62
2022/05/24 00:59:38;;;;;;;25.08;10.23;;;;;;;;;;4390022;32;20605;-64
2022/05/24 01:02:06;;;;;;;24.87;11.02;;;;;;;;;;4390106;32;20078;-64
2022/05/24 01:04:32;;;;;;;18.45;9.10;;;;;;;;;;4377722;32;20097;-62
2022/05/24 01:06:59;;;;;;;16.27;7.82;;;;;;;;;;4378428;32;20074;-63
2022/05/24 01:09:42;;;;;;;17.17;6.62;;;;;;;;;;4391235;32;20096;-63
2022/05/24 01:12:21;;;;;;;13.75;6.50;;;;;;;;;;4394539;32;20074;-62
2022/05/24 01:14:48;;;;;;;14.43;6.50;;;;;;;;;;4383758;32;20092;-65
2022/05/24 01:17:14;;;;;;;10.60;5.30;;;;;;;;;;4391193;32;20078;-62
2022/05/24 01:19:44;;;;;;;14.90;6.72;;;;;;;;;;4391498;32;20169;-64
2022/05/24 01:22:29;;;;;;;12.60;6.47;;;;;;;;;;4390101;32;20086;-64
2022/05/24 01:25:28;;;;;;;10.73;5.72;;;;;;;;;;4377931;32;20070;-62
2022/05/24 01:27:54;;;;;;;12.55;5.85;;;;;;;;;;4369402;32;20086;-62
2022/05/24 01:30:21;;;;;;;13.68;6.20;;;;;;;;;;4390582;32;20080;-63
2022/05/24 01:38:20;;;;;;;22.45;9.93;;;;;;;;;;4392963;32;20170;-64
2022/05/24 01:40:48;;;;;;;16.77;8.25;;;;;;;;;;4380613;32;20114;-63
2022/05/24 01:43:19;;;;;;;17.45;7.90;;;;;;;;;;4392142;32;20085;-64
2022/05/24 01:45:55;;;;;;;11.73;6.05;;;;;;;;;;4379919;32;20586;-63
2022/05/24 01:48:36;;;;;;;14.35;5.75;;;;;;;;;;4393773;32;20089;-62
2022/05/24 01:51:04;;;;;;;11.88;5.60;;;;;;;;;;4392886;32;20185;-63
2022/05/24 01:53:37;;;;;;;10.05;4.78;;;;;;;;;;4392005;32;20153;-63
2022/05/24 01:56:06;;;;;;;10.98;4.60;;;;;;;;;;4379941;32;20066;-63
2022/05/24 01:58:33;;;;;;;7.55;4.10;;;;;;;;;;4380052;32;20459;-64
2022/05/24 02:01:05;;;;;;;6.25;3.87;;;;;;;;;;4393903;32;20076;-64
2022/05/24 02:03:32;;;;;;;5.20;3.20;;;;;;;;;;4380082;32;20085;-64
2022/05/24 02:05:58;;;;;;;5.95;3.45;;;;;;;;;;4380178;32;20157;-64
2022/05/24 02:08:26;;;;;;;6.62;3.35;;;;;;;;;;4393478;32;20449;-63
2022/05/24 02:10:58;;;;;;;7.62;3.45;;;;;;;;;;4379744;32;20085;-64
2022/05/24 02:13:39;;;;;;;9.35;3.62;;;;;;;;;;4392981;32;20080;-63
2022/05/24 02:16:11;;;;;;;8.82;3.70;;;;;;;;;;4397104;32;20081;-64
2022/05/24 02:18:40;;;;;;;7.15;3.60;;;;;;;;;;4383810;32;20092;-63
2022/05/24 02:21:07;;;;;;;8.07;3.53;;;;;;;;;;4397780;32;20070;-63
2022/05/24 02:23:42;;;;;;;8.48;3.80;;;;;;;;;;4397581;32;20083;-63
2022/05/24 02:26:11;;;;;;;5.78;3.20;;;;;;;;;;4392047;32;20094;-63
2022/05/24 02:28:37;;;;;;;7.22;3.40;;;;;;;;;;4366385;32;20470;-62
2022/05/24 02:31:07;;;;;;;4.40;3.08;;;;;;;;;;4391849;32;20089;-62
2022/05/24 02:33:34;;;;;;;4.85;3.00;;;;;;;;;;4391822;32;20074;-63
2022/05/24 02:36:01;;;;;;;6.90;3.37;;;;;;;;;;4391734;32;20066;-63
2022/05/24 02:38:28;;;;;;;4.72;3.00;;;;;;;;;;4391382;32;20590;-63
2022/05/24 02:43:40;;;;;;;4.78;2.92;;;;;;;;;;4393447;32;20137;-62
2022/05/24 02:46:07;;;;;;;6.55;3.12;;;;;;;;;;4391879;32;20127;-63
2022/05/24 02:48:34;;;;;;;6.10;2.95;;;;;;;;;;4391669;32;20073;-63
2022/05/24 02:51:01;;;;;;;4.35;2.80;;;;;;;;;;4392095;32;20497;-63
2022/05/24 02:53:28;;;;;;;6.25;3.05;;;;;;;;;;4393174;32;20150;-64
2022/05/24 02:55:54;;;;;;;4.20;2.45;;;;;;;;;;4391636;32;20088;-62
2022/05/24 02:58:21;;;;;;;4.22;2.55;;;;;;;;;;4393244;32;20160;-63
2022/05/24 03:02:27;;;;;;;5.07;2.70;;;;;;;;;;3857957;37;20070;-62
2022/05/24 03:04:54;;;;;;;4.62;2.30;;;;;;;;;;4421986;32;20077;-63
2022/05/24 03:10:07;;;;;;;3.83;2.67;;;;;;;;;;4421057;32;20092;-62
2022/05/24 03:15:19;;;;;;;4.72;2.40;;;;;;;;;;4421087;32;20161;-63
2022/05/24 03:17:45;;;;;;;4.75;2.50;;;;;;;;;;4420166;32;20073;-64
2022/05/24 03:20:12;;;;;;;4.45;2.50;;;;;;;;;;4418486;32;20114;-63
2022/05/24 03:22:39;;;;;;;5.50;2.65;;;;;;;;;;4418605;32;20523;-62
2022/05/24 03:25:06;;;;;;;5.10;2.45;;;;;;;;;;4419558;32;20096;-63
2022/05/24 03:27:33;;;;;;;5.15;2.87;;;;;;;;;;4417987;32;20088;-63
2022/05/24 03:30:00;;;;;;;5.20;2.33;;;;;;;;;;4405383;32;20091;-62
2022/05/24 03:32:26;;;;;;;6.22;2.97;;;;;;;;;;4418365;32;20093;-61
2022/05/24 03:34:53;;;;;;;5.03;2.78;;;;;;;;;;4419491;32;20084;-64
2022/05/24 03:37:19;;;;;;;4.35;2.37;;;;;;;;;;4419802;32;20081;-63
2022/05/24 03:39:46;;;;;;;4.25;2.70;;;;;;;;;;4419282;32;20543;-62
2022/05/24 03:42:13;;;;;;;3.53;2.22;;;;;;;;;;4418471;32;20105;-61
2022/05/24 03:44:40;;;;;;;6.43;2.67;;;;;;;;;;4427191;32;20062;-63
2022/05/24 03:47:07;;;;;;;5.60;2.80;;;;;;;;;;4431277;32;20073;-62
2022/05/24 03:49:33;;;;;;;5.47;3.00;;;;;;;;;;4418082;32;20177;-62
2022/05/24 03:52:00;;;;;;;4.30;2.85;;;;;;;;;;4404874;32;20561;-63
2022/05/24 03:54:27;;;;;;;6.28;2.40;;;;;;;;;;4417925;32;20076;-62
2022/05/24 03:59:40;;;;;;;5.57;2.85;;;;;;;;;;4418885;32;20165;-63
2022/05/24 04:02:06;;;;;;;5.20;2.70;;;;;;;;;;4404414;32;20461;-62
2022/05/24 04:04:33;;;;;;;4.97;2.62;;;;;;;;;;4419243;32;20080;-62
2022/05/24 04:07:00;;;;;;;3.75;2.40;;;;;;;;;;4419237;32;20061;-62
2022/05/24 04:09:26;;;;;;;4.00;2.37;;;;;;;;;;4406983;32;20080;-64
2022/05/24 04:11:56;;;;;;;3.22;2.15;;;;;;;;;;4417209;32;20078;-63
2022/05/24 04:14:22;;;;;;;5.53;2.72;;;;;;;;;;4407466;32;20150;-62
2022/05/24 04:16:49;;;;;;;3.92;2.35;;;;;;;;;;4394713;32;20599;-62
2022/05/24 04:19:16;;;;;;;6.78;2.50;;;;;;;;;;4406826;32;20516;-62
2022/05/24 04:21:43;;;;;;;4.70;2.60;;;;;;;;;;4407452;32;20093;-63
2022/05/24 04:24:10;;;;;;;4.28;2.30;;;;;;;;;;4408759;32;20445;-62
2022/05/24 04:26:36;;;;;;;4.10;2.15;;;;;;;;;;4406974;32;20169;-62
2022/05/24 04:29:03;;;;;;;5.03;2.30;;;;;;;;;;4394549;32;20077;-61
2022/05/24 04:31:30;;;;;;;3.40;2.20;;;;;;;;;;4394875;32;20168;-61
2022/05/24 04:33:56;;;;;;;2.62;1.95;;;;;;;;;;4382017;32;20089;-62
2022/05/24 04:36:23;;;;;;;4.50;2.22;;;;;;;;;;4408800;32;20085;-61
2022/05/24 04:38:49;;;;;;;3.83;2.00;;;;;;;;;;4409003;32;20640;-62
2022/05/24 04:44:02;;;;;;;2.50;1.50;;;;;;;;;;4408295;32;20088;-62
2022/05/24 04:47:06;;;;;;;3.08;1.67;;;;;;;;;;4408290;32;20080;-61
2022/05/24 04:49:15;;;;;;;2.10;1.65;;;;;;;;;;4408314;32;20080;-62
2022/05/24 04:51:41;;;;;;;5.37;1.87;;;;;;;;;;4393895;32;20524;-61
2022/05/24 04:54:08;;;;;;;4.03;1.90;;;;;;;;;;4408135;32;20070;-63
2022/05/24 04:56:35;;;;;;;4.55;2.22;;;;;;;;;;4406822;32;20452;-62
2022/05/24 04:59:01;;;;;;;4.15;2.12;;;;;;;;;;4408284;32;20080;-61
2022/05/24 05:01:28;;;;;;;5.18;2.05;;;;;;;;;;4408114;32;20077;-62
2022/05/24 05:03:57;;;;;;;4.03;2.22;;;;;;;;;;4408886;32;20073;-62
2022/05/24 05:06:24;;;;;;;2.80;1.83;;;;;;;;;;4406728;32;20069;-62
2022/05/24 05:08:50;;;;;;;4.70;1.95;;;;;;;;;;4408339;32;20470;-62
2022/05/24 05:11:17;;;;;;;3.40;2.20;;;;;;;;;;4408281;32;20081;-62
2022/05/24 05:13:43;;;;;;;5.50;2.47;;;;;;;;;;4407829;32;20721;-61
2022/05/24 05:16:10;;;;;;;3.85;2.55;;;;;;;;;;4394494;32;20160;-62
2022/05/24 05:18:37;;;;;;;3.30;1.85;;;;;;;;;;4408381;32;20079;-62
2022/05/24 05:21:03;;;;;;;2.28;1.80;;;;;;;;;;4408173;32;20085;-61
2022/05/24 05:23:30;;;;;;;2.70;1.90;;;;;;;;;;4406769;32;20157;-62
2022/05/24 05:25:57;;;;;;;4.20;2.28;;;;;;;;;;4406209;32;20078;-62
2022/05/24 05:28:23;;;;;;;2.90;1.95;;;;;;;;;;4407177;32;20073;-62
2022/05/24 05:33:36;;;;;;;4.20;1.98;;;;;;;;;;4409950;32;20162;-62
2022/05/24 05:36:03;;;;;;;3.28;1.85;;;;;;;;;;4409571;32;20065;-62
2022/05/24 05:38:31;;;;;;;3.08;2.03;;;;;;;;;;4394889;32;20070;-62
2022/05/24 05:41:00;;;;;;;2.72;1.73;;;;;;;;;;4383149;32;20116;-62
2022/05/24 05:43:28;;;;;;;2.50;1.98;;;;;;;;;;4395917;32;20070;-62
2022/05/24 05:45:56;;;;;;;2.42;1.70;;;;;;;;;;4409861;32;20136;-62
2022/05/24 05:48:23;;;;;;;3.20;1.90;;;;;;;;;;4409447;32;20064;-62
2022/05/24 05:50:50;;;;;;;3.85;1.90;;;;;;;;;;4409254;32;20491;-62
2022/05/24 05:53:17;;;;;;;3.15;1.95;;;;;;;;;;4409383;32;20160;-62
2022/05/24 05:55:44;;;;;;;3.65;1.75;;;;;;;;;;4408523;32;20071;-62
2022/05/24 05:58:11;;;;;;;2.95;1.80;;;;;;;;;;4407883;32;20077;-63
2022/05/24 06:00:38;;;;;;;2.37;1.60;;;;;;;;;;4407827;32;20103;-62
2022/05/24 06:03:05;;;;;;;2.90;1.80;;;;;;;;;;4409363;32;20507;-62
2022/05/24 06:05:33;;;;;;;2.22;1.60;;;;;;;;;;4409466;32;20077;-62
2022/05/24 06:08:00;;;;;;;2.25;1.85;;;;;;;;;;4408819;32;20173;-62
2022/05/24 06:10:28;;;;;;;2.67;1.70;;;;;;;;;;4409032;32;20163;-62
2022/05/24 06:12:56;;;;;;;1.80;1.25;;;;;;;;;;4395836;32;20081;-63
2022/05/24 06:15:27;;;;;;;3.10;1.58;;;;;;;;;;4394338;32;20069;-67
2022/05/24 06:17:54;;;;;;;2.50;1.58;;;;;;;;;;4408124;32;20066;-63
2022/05/24 06:20:24;;;;;;;4.50;1.90;;;;;;;;;;4393757;32;20076;-62
2022/05/24 06:22:52;;;;;;;1.77;1.40;;;;;;;;;;4394959;32;20082;-63
2022/05/24 06:25:20;;;;;;;2.65;1.90;;;;;;;;;;4395560;32;20080;-64
2022/05/24 06:27:47;;;;;;;2.72;2.00;;;;;;;;;;4397498;32;20077;-64
2022/05/24 06:30:14;;;;;;;5.00;2.03;;;;;;;;;;4409503;32;20085;-63
2022/05/24 06:32:41;;;;;;;2.25;1.70;;;;;;;;;;4410710;32;20477;-63
2022/05/24 06:35:08;;;;;;;3.70;2.10;;;;;;;;;;4409535;32;20457;-63
2022/05/24 06:37:35;;;;;;;3.40;1.92;;;;;;;;;;4409358;32;20151;-64
2022/05/24 06:40:02;;;;;;;3.30;1.77;;;;;;;;;;4396089;32;20076;-64
2022/05/24 06:42:28;;;;;;;2.33;1.92;;;;;;;;;;4396777;32;20061;-64
2022/05/24 06:44:56;;;;;;;2.22;1.80;;;;;;;;;;4407608;32;20093;-63
2022/05/24 06:47:23;;;;;;;4.32;1.65;;;;;;;;;;4407502;32;20077;-63
2022/05/24 06:49:49;;;;;;;3.35;2.12;;;;;;;;;;4406239;32;20137;-64
2022/05/24 06:52:16;;;;;;;2.30;1.73;;;;;;;;;;4408361;32;20100;-63
2022/05/24 06:54:43;;;;;;;5.72;2.22;;;;;;;;;;4393554;32;20648;-63
2022/05/24 06:57:09;;;;;;;3.03;1.65;;;;;;;;;;4406941;32;20142;-63
2022/05/24 07:02:27;;;;;;;6.32;2.30;;;;;;;;;;4407677;32;20089;-63
2022/05/24 07:05:02;;;;;;;5.47;2.20;;;;;;;;;;4408011;32;20126;-63
2022/05/24 07:07:30;;;;;;;4.25;2.20;;;;;;;;;;4381851;32;20075;-63
2022/05/24 07:09:57;;;;;;;2.80;2.00;;;;;;;;;;4407279;32;20157;-63
2022/05/24 07:12:24;;;;;;;3.75;2.00;;;;;;;;;;4406022;32;20073;-63
2022/05/24 07:14:51;;;;;;;4.35;2.55;;;;;;;;;;4393994;32;20070;-64
2022/05/24 07:17:18;;;;;;;3.58;2.10;;;;;;;;;;4405956;32;20076;-63
2022/05/24 07:19:46;;;;;;;4.18;2.15;;;;;;;;;;4393135;32;20096;-63
2022/05/24 07:22:13;;;;;;;3.17;2.08;;;;;;;;;;4405058;32;20425;-67
2022/05/24 07:24:40;;;;;;;2.92;1.85;;;;;;;;;;4393400;32;20085;-63
